Time;durP1;ratioP1;P1;durP2;ratioP2;P2;SDS_P1;SDS_P2;PMS_P1;PMS_P2;Temp;Humidity;BMP_temperature;BMP_pressure;BME280_temperature;BME280_humidity;BME280_pressure;Samples;Min_cycle;Max_cycle;Signal;HPM_P1;HPM_P2
2023/04/23 00:00:20;;;;;;;27.13;11.15;;;8.00;99.90;;;;;;4995267;28;20124;-71
2023/04/23 00:02:49;;;;;;;33.97;11.02;;;8.00;99.90;;;;;;5000935;28;20037;-72
2023/04/23 00:05:15;;;;;;;23.48;10.90;;;7.90;99.90;;;;;;5002914;28;20488;-70
2023/04/23 00:07:41;;;;;;;28.87;11.60;;;7.80;99.90;;;;;;5000708;28;20081;-71
2023/04/23 00:10:08;;;;;;;23.00;11.20;;;7.90;99.90;;;;;;4997337;28;20555;-71
2023/04/23 00:12:33;;;;;;;;;;;7.80;99.90;;;;;;5004360;28;20127;-69
2023/04/23 00:15:00;;;;;;;27.42;12.20;;;7.80;99.90;;;;;;5002784;28;19957;-71
2023/04/23 00:17:26;;;;;;;;;;;7.70;99.90;;;;;;4980717;28;20049;-70
2023/04/23 00:19:51;;;;;;;24.48;11.82;;;7.80;99.90;;;;;;5005666;28;19917;-71
2023/04/23 00:22:19;;;;;;;27.83;12.25;;;7.70;99.90;;;;;;4992736;28;20077;-71
2023/04/23 00:24:44;;;;;;;26.85;11.90;;;7.80;99.90;;;;;;5005925;28;20475;-71
2023/04/23 00:27:10;;;;;;;27.05;13.23;;;7.80;99.90;;;;;;5000771;28;20034;-70
2023/04/23 00:29:36;;;;;;;24.77;12.67;;;7.80;99.90;;;;;;4984717;28;20042;-69
2023/04/23 00:32:02;;;;;;;26.83;13.53;;;7.80;99.90;;;;;;4975890;28;20053;-70
2023/04/23 00:34:28;;;;;;;25.02;13.57;;;7.80;99.90;;;;;;5004477;28;20570;-70
2023/04/23 00:36:54;;;;;;;28.50;13.18;;;7.80;99.90;;;;;;5003564;28;20061;-71
2023/04/23 00:39:20;;;;;;;30.42;12.82;;;7.80;99.90;;;;;;4995926;28;20539;-70
2023/04/23 00:41:45;;;;;;;28.75;13.07;;;7.80;99.90;;;;;;4981736;28;20046;-70
2023/04/23 00:44:12;;;;;;;29.30;12.83;;;7.70;99.90;;;;;;4996537;28;20053;-70
2023/04/23 00:46:38;;;;;;;28.77;13.70;;;7.80;99.90;;;;;;4989604;28;20689;-70
2023/04/23 00:49:03;;;;;;;24.80;12.38;;;7.80;99.90;;;;;;4997816;28;20042;-70
2023/04/23 00:51:30;;;;;;;26.10;13.37;;;7.80;99.90;;;;;;5000215;28;20511;-71
2023/04/23 00:53:56;;;;;;;28.25;13.73;;;7.80;99.90;;;;;;5004560;28;20065;-71
2023/04/23 00:56:23;;;;;;;25.50;12.50;;;7.80;99.90;;;;;;5003145;28;20052;-71
2023/04/23 00:58:51;;;;;;;28.77;13.15;;;7.80;99.90;;;;;;4988212;28;20808;-71
2023/04/23 01:01:19;;;;;;;27.70;13.45;;;7.80;99.90;;;;;;5000687;28;20045;-71
2023/04/23 01:03:47;;;;;;;30.48;14.68;;;7.80;99.90;;;;;;5000386;28;20119;-71
2023/04/23 01:06:13;;;;;;;26.60;12.95;;;7.80;99.90;;;;;;5003707;28;20049;-71
2023/04/23 01:08:41;;;;;;;30.58;13.75;;;7.80;99.90;;;;;;5004191;28;20408;-71
2023/04/23 01:11:07;;;;;;;29.42;13.15;;;7.70;99.90;;;;;;4997587;28;20113;-71
2023/04/23 01:13:34;;;;;;;29.58;12.48;;;7.70;99.90;;;;;;5001323;28;20077;-71
2023/04/23 01:16:01;;;;;;;26.38;13.00;;;7.70;99.90;;;;;;5000505;28;20057;-70
2023/04/23 01:18:26;;;;;;;;;;;7.70;99.90;;;;;;5006387;28;20046;-71
2023/04/23 01:20:52;;;;;;;32.20;13.85;;;7.70;99.90;;;;;;5007343;28;19920;-70
2023/04/23 01:23:19;;;;;;;29.33;14.05;;;7.70;99.90;;;;;;4985771;28;20035;-71
2023/04/23 01:25:45;;;;;;;27.83;14.18;;;7.70;99.90;;;;;;5001112;28;20108;-70
2023/04/23 01:28:11;;;;;;;28.27;13.57;;;7.70;99.90;;;;;;5004149;28;20038;-71
2023/04/23 01:30:41;;;;;;;33.63;14.68;;;7.70;99.90;;;;;;5003637;28;20050;-71
2023/04/23 01:33:08;;;;;;;31.30;14.52;;;7.70;99.90;;;;;;4981008;28;20124;-71
2023/04/23 01:35:35;;;;;;;32.20;15.55;;;7.70;99.90;;;;;;5000615;28;20250;-72
2023/04/23 01:38:02;;;;;;;29.33;14.77;;;7.70;99.90;;;;;;5006037;28;20435;-70
2023/04/23 01:40:28;;;;;;;37.75;15.40;;;7.60;99.90;;;;;;4996509;28;20062;-71
2023/04/23 01:42:55;;;;;;;30.48;14.63;;;7.60;99.90;;;;;;4998369;28;20049;-70
2023/04/23 01:45:21;;;;;;;35.78;15.48;;;7.60;99.90;;;;;;5002792;28;20038;-70
2023/04/23 01:47:46;;;;;;;39.37;16.23;;;7.70;99.90;;;;;;5003563;28;20194;-70
2023/04/23 01:50:12;;;;;;;38.87;17.20;;;7.70;99.90;;;;;;4998842;28;20045;-70
2023/04/23 01:52:39;;;;;;;39.03;17.23;;;7.70;99.90;;;;;;5001560;28;20057;-71
2023/04/23 01:55:05;;;;;;;37.30;16.27;;;7.70;99.90;;;;;;4983100;28;20484;-69
2023/04/23 01:57:30;;;;;;;39.33;17.47;;;7.70;99.90;;;;;;4998187;28;20044;-71
2023/04/23 02:00:07;;;;;;;38.63;16.37;;;7.70;99.90;;;;;;5005395;28;20389;-71
2023/04/23 02:02:36;;;;;;;47.03;18.88;;;7.70;99.90;;;;;;5001167;28;20038;-71
2023/04/23 02:05:03;;;;;;;44.75;18.10;;;7.70;99.90;;;;;;4995791;28;20068;-71
2023/04/23 02:07:31;;;;;;;44.83;19.77;;;7.70;99.90;;;;;;4994696;28;20427;-70
2023/04/23 02:09:57;;;;;;;48.78;19.42;;;7.80;99.90;;;;;;4995795;28;20041;-71
2023/04/23 02:12:23;;;;;;;50.40;20.98;;;7.80;99.90;;;;;;4992448;28;20523;-71
2023/04/23 02:14:49;;;;;;;55.38;21.63;;;7.80;99.90;;;;;;4994625;28;20053;-71
2023/04/23 02:17:15;;;;;;;53.97;20.23;;;7.80;99.90;;;;;;4998878;28;20543;-71
2023/04/23 02:19:41;;;;;;;53.17;21.63;;;7.80;99.90;;;;;;5000327;28;20033;-71
2023/04/23 02:22:06;;;;;;;57.33;22.23;;;7.80;99.90;;;;;;5004698;28;20045;-71
2023/04/23 02:24:32;;;;;;;65.40;23.63;;;7.90;99.90;;;;;;4982788;28;20057;-70
2023/04/23 02:26:58;;;;;;;54.75;21.70;;;7.90;99.90;;;;;;4988469;28;20046;-71
2023/04/23 02:29:24;;;;;;;58.77;24.67;;;7.90;99.90;;;;;;4987846;28;20054;-71
2023/04/23 02:31:49;;;;;;;69.00;26.23;;;7.90;99.90;;;;;;5004164;28;20077;-71
2023/04/23 02:34:15;;;;;;;54.97;22.33;;;8.00;99.90;;;;;;5007589;28;20042;-71
2023/04/23 02:36:40;;;;;;;59.93;23.87;;;8.00;99.90;;;;;;4990110;28;20117;-71
2023/04/23 02:41:40;;;;;;;63.92;25.80;;;8.00;99.90;;;;;;4997666;28;20385;-70
2023/04/23 02:44:06;;;;;;;63.90;24.87;;;8.00;99.90;;;;;;4981943;28;20049;-70
2023/04/23 02:46:32;;;;;;;71.30;27.20;;;8.00;99.90;;;;;;4965134;28;20042;-70
2023/04/23 02:48:57;;;;;;;68.05;26.10;;;8.10;99.90;;;;;;4996242;28;20093;-70
2023/04/23 02:51:23;;;;;;;63.47;27.07;;;8.10;99.90;;;;;;4984000;28;20038;-70
2023/04/23 02:53:49;;;;;;;70.53;28.13;;;8.10;99.90;;;;;;4990332;28;20070;-70
2023/04/23 02:56:15;;;;;;;67.43;26.65;;;8.10;99.90;;;;;;4985839;28;20049;-70
2023/04/23 02:58:40;;;;;;;69.73;27.43;;;8.10;99.90;;;;;;4982868;28;20049;-71
2023/04/23 03:01:06;;;;;;;65.90;27.97;;;8.10;99.90;;;;;;4981831;28;20061;-70
2023/04/23 03:03:32;;;;;;;67.28;27.27;;;8.10;99.90;;;;;;4991736;28;20076;-71
2023/04/23 03:05:59;;;;;;;65.35;27.65;;;8.10;99.90;;;;;;4978228;28;20053;-70
2023/04/23 03:08:25;;;;;;;74.68;28.92;;;8.10;99.90;;;;;;4979038;28;20050;-70
2023/04/23 03:10:51;;;;;;;59.13;26.45;;;8.10;99.90;;;;;;4996230;28;20068;-70
2023/04/23 03:13:17;;;;;;;66.70;26.47;;;8.10;99.90;;;;;;4976616;28;20203;-70
2023/04/23 03:15:42;;;;;;;66.43;26.70;;;8.10;99.90;;;;;;4999712;28;20042;-70
2023/04/23 03:18:08;;;;;;;67.00;28.63;;;8.10;99.90;;;;;;4976030;28;20052;-70
2023/04/23 03:20:35;;;;;;;66.37;27.47;;;8.20;99.90;;;;;;4976165;28;20480;-70
2023/04/23 03:23:01;;;;;;;66.13;29.05;;;8.20;99.90;;;;;;4982349;28;20037;-70
2023/04/23 03:25:26;;;;;;;64.05;25.92;;;8.20;99.90;;;;;;4980711;28;20124;-70
2023/04/23 03:27:52;;;;;;;73.33;28.97;;;8.20;99.90;;;;;;4983995;28;20468;-71
2023/04/23 03:30:19;;;;;;;71.15;30.73;;;8.20;99.90;;;;;;4993507;28;20035;-70
2023/04/23 03:32:44;;;;;;;71.50;29.52;;;8.20;99.90;;;;;;4979682;28;20221;-70
2023/04/23 03:35:10;;;;;;;70.27;26.97;;;8.20;99.90;;;;;;4970543;28;20318;-70
2023/04/23 03:37:36;;;;;;;74.25;28.67;;;8.20;99.90;;;;;;4991821;28;20137;-70
2023/04/23 03:40:06;;;;;;;72.07;28.77;;;8.20;99.90;;;;;;4994241;28;20173;-70
2023/04/23 03:42:32;;;;;;;67.05;28.88;;;8.20;99.90;;;;;;4977733;28;20042;-70
2023/04/23 03:44:59;;;;;;;74.40;29.73;;;8.20;99.90;;;;;;4995234;28;20050;-70
2023/04/23 03:47:25;;;;;;;73.05;29.33;;;8.20;99.90;;;;;;4984289;28;20088;-70
2023/04/23 03:49:51;;;;;;;71.07;30.55;;;8.20;99.90;;;;;;5004900;28;20066;-70
2023/04/23 03:52:17;;;;;;;74.38;29.55;;;8.20;99.90;;;;;;4991957;28;20073;-70
2023/04/23 03:54:43;;;;;;;72.03;29.13;;;8.30;99.90;;;;;;4975896;28;20085;-70
2023/04/23 03:57:10;;;;;;;71.43;29.20;;;8.30;99.90;;;;;;4994695;28;20508;-70
2023/04/23 03:59:36;;;;;;;72.57;29.13;;;8.30;99.90;;;;;;4986441;28;20149;-70
2023/04/23 04:02:05;;;;;;;75.40;30.95;;;8.30;99.90;;;;;;4983330;28;20149;-70
2023/04/23 04:04:31;;;;;;;70.57;28.98;;;8.30;99.90;;;;;;4974271;28;20038;-70
2023/04/23 04:06:59;;;;;;;;;;;8.30;99.90;;;;;;4955574;28;20065;-70
2023/04/23 04:09:25;;;;;;;70.95;29.58;;;8.30;99.90;;;;;;4991688;28;20464;-70
2023/04/23 04:11:52;;;;;;;68.93;29.63;;;8.30;99.90;;;;;;4982512;28;20053;-70
2023/04/23 04:14:18;;;;;;;68.07;28.10;;;8.30;99.90;;;;;;4979161;28;20045;-70
2023/04/23 04:16:45;;;;;;;68.55;29.52;;;8.30;99.90;;;;;;4993859;28;20127;-70
2023/04/23 04:19:10;;;;;;;69.60;28.85;;;8.30;99.90;;;;;;4993610;28;20082;-70
2023/04/23 04:21:36;;;;;;;65.77;27.63;;;8.30;99.90;;;;;;4957368;28;20045;-70
2023/04/23 04:24:05;;;;;;;71.50;29.15;;;8.30;99.90;;;;;;4977196;28;20049;-71
2023/04/23 04:26:33;;;;;;;66.25;29.02;;;8.30;99.90;;;;;;4978685;28;20074;-70
2023/04/23 04:29:00;;;;;;;76.18;29.40;;;8.30;99.90;;;;;;4990758;28;20052;-70
2023/04/23 04:31:27;;;;;;;71.03;29.45;;;8.30;99.90;;;;;;4996544;28;20091;-70
2023/04/23 04:33:54;;;;;;;;;;;8.40;99.90;;;;;;4998304;28;20057;-70
2023/04/23 04:36:20;;;;;;;72.35;28.08;;;8.40;99.90;;;;;;4996168;28;19990;-70
2023/04/23 04:38:46;;;;;;;66.40;28.65;;;8.30;99.90;;;;;;4997855;28;20512;-70
2023/04/23 04:41:12;;;;;;;65.10;27.85;;;8.30;99.90;;;;;;5003003;28;20076;-70
2023/04/23 04:43:38;;;;;;;62.58;27.45;;;8.30;99.90;;;;;;4982285;28;20050;-70
2023/04/23 04:46:04;;;;;;;65.32;26.73;;;8.30;99.90;;;;;;4973778;28;20523;-70
2023/04/23 04:48:30;;;;;;;68.07;28.70;;;8.40;99.90;;;;;;4969830;28;20117;-70
2023/04/23 04:50:56;;;;;;;70.40;28.20;;;8.40;99.90;;;;;;4994950;28;20082;-70
2023/04/23 04:53:22;;;;;;;66.57;27.73;;;8.40;99.90;;;;;;4965706;28;20038;-70
2023/04/23 04:55:48;;;;;;;74.55;28.27;;;8.40;99.90;;;;;;4986571;28;20060;-70
2023/04/23 04:58:13;;;;;;;68.43;28.17;;;8.40;99.90;;;;;;4975142;28;20030;-70
2023/04/23 05:00:39;;;;;;;63.47;27.87;;;8.40;99.90;;;;;;4988902;28;20283;-70
2023/04/23 05:03:05;;;;;;;63.50;28.77;;;8.40;99.90;;;;;;4982681;28;20057;-70
2023/04/23 05:05:32;;;;;;;69.47;27.67;;;8.40;99.90;;;;;;4997903;28;20292;-70
2023/04/23 05:08:03;;;;;;;70.85;27.98;;;8.40;99.90;;;;;;4989617;28;20050;-70
2023/04/23 05:10:29;;;;;;;62.22;25.85;;;8.40;99.90;;;;;;5001481;28;20053;-70
2023/04/23 05:12:59;;;;;;;70.72;28.88;;;8.40;99.90;;;;;;4988622;28;20046;-70
2023/04/23 05:15:25;;;;;;;65.20;25.52;;;8.40;99.90;;;;;;4982782;28;20046;-70
2023/04/23 05:17:52;;;;;;;57.80;26.97;;;8.50;99.90;;;;;;4979953;28;20041;-70
2023/04/23 05:20:18;;;;;;;67.05;27.98;;;8.50;99.90;;;;;;4994059;28;20287;-70
2023/04/23 05:22:44;;;;;;;65.07;26.95;;;8.50;99.90;;;;;;4997590;28;20046;-70
2023/04/23 05:25:10;;;;;;;62.30;27.03;;;8.50;99.90;;;;;;4982469;28;20697;-70
2023/04/23 05:27:37;;;;;;;60.78;26.75;;;8.50;99.90;;;;;;4981505;28;20400;-70
2023/04/23 05:30:05;;;;;;;57.22;24.20;;;8.60;99.90;;;;;;4981458;28;20396;-70
2023/04/23 05:32:31;;;;;;;61.08;25.63;;;8.60;99.90;;;;;;4972838;28;20505;-70
2023/04/23 05:34:58;;;;;;;55.42;25.25;;;8.60;99.90;;;;;;4980409;28;20046;-70
2023/04/23 05:37:24;;;;;;;63.60;25.08;;;8.60;99.90;;;;;;4996220;28;20049;-70
2023/04/23 05:39:50;;;;;;;54.42;24.85;;;8.60;99.90;;;;;;4975181;28;20046;-70
2023/04/23 05:42:16;;;;;;;51.97;22.63;;;8.70;99.90;;;;;;4996805;28;20045;-70
2023/04/23 05:44:42;;;;;;;49.05;23.33;;;8.70;99.90;;;;;;4988533;28;20511;-70
2023/04/23 05:47:09;;;;;;;53.30;24.23;;;8.70;99.90;;;;;;4978544;28;20596;-70
2023/04/23 05:49:35;;;;;;;49.72;23.95;;;8.70;99.90;;;;;;4965628;28;20042;-70
2023/04/23 05:52:01;;;;;;;49.43;22.97;;;8.80;99.90;;;;;;4998086;28;20042;-70
2023/04/23 05:54:28;;;;;;;47.33;23.15;;;8.80;99.90;;;;;;4963586;28;20633;-70
2023/04/23 05:56:54;;;;;;;49.75;23.42;;;8.90;99.90;;;;;;4984138;28;20038;-70
2023/04/23 05:59:20;;;;;;;51.30;23.00;;;8.80;99.90;;;;;;4975314;28;20486;-70
2023/04/23 06:01:47;;;;;;;46.53;21.52;;;8.80;99.90;;;;;;4973095;28;20133;-70
2023/04/23 06:04:13;;;;;;;48.88;23.00;;;8.90;99.90;;;;;;4966038;28;20393;-70
2023/04/23 06:06:39;;;;;;;48.85;22.58;;;8.90;99.90;;;;;;4996613;28;20100;-70
2023/04/23 06:09:05;;;;;;;45.73;22.53;;;9.00;99.90;;;;;;4973160;28;20065;-70
2023/04/23 06:11:31;;;;;;;49.28;22.83;;;8.90;99.90;;;;;;4994521;28;20508;-70
2023/04/23 06:13:58;;;;;;;44.38;21.58;;;8.90;99.90;;;;;;5003568;28;20085;-70
2023/04/23 06:16:24;;;;;;;44.47;21.30;;;8.90;99.90;;;;;;4998286;28;20202;-70
2023/04/23 06:18:50;;;;;;;46.92;21.77;;;8.90;99.90;;;;;;4984195;28;20388;-70
2023/04/23 06:21:16;;;;;;;44.53;22.97;;;9.00;99.90;;;;;;5006813;28;20053;-70
2023/04/23 06:23:41;;;;;;;47.10;22.67;;;9.10;99.90;;;;;;5002088;28;20696;-70
2023/04/23 06:26:07;;;;;;;46.83;21.17;;;9.10;99.90;;;;;;4984491;28;20046;-70
2023/04/23 06:28:33;;;;;;;52.77;22.87;;;9.20;99.90;;;;;;4985515;28;20309;-70
2023/04/23 06:30:58;;;;;;;48.20;22.45;;;9.30;99.90;;;;;;4980327;28;20037;-70
2023/04/23 06:33:24;;;;;;;43.93;21.50;;;9.40;99.90;;;;;;4986568;28;20430;-70
2023/04/23 06:35:50;;;;;;;50.47;22.63;;;9.40;99.90;;;;;;4979449;28;20476;-70
2023/04/23 06:38:17;;;;;;;47.00;23.15;;;9.50;99.90;;;;;;4978971;28;20099;-70
2023/04/23 06:40:43;;;;;;;49.58;22.15;;;9.60;99.90;;;;;;4997974;28;20053;-70
2023/04/23 06:43:09;;;;;;;50.17;22.07;;;9.70;99.90;;;;;;4968716;28;20042;-70
2023/04/23 06:45:35;;;;;;;;;;;9.80;99.90;;;;;;4980080;28;20088;-70
2023/04/23 06:48:01;;;;;;;46.78;21.38;;;9.90;99.90;;;;;;4986479;28;20063;-70
2023/04/23 06:50:26;;;;;;;47.73;22.00;;;9.90;99.90;;;;;;4992361;28;20034;-70
2023/04/23 06:52:53;;;;;;;50.03;23.03;;;10.00;99.90;;;;;;5007176;28;20052;-70
2023/04/23 06:55:19;;;;;;;44.45;20.60;;;9.90;99.90;;;;;;4985654;28;20053;-70
2023/04/23 06:57:45;;;;;;;49.35;24.63;;;10.00;99.90;;;;;;4976276;28;20046;-70
2023/04/23 07:00:11;;;;;;;48.47;23.20;;;10.00;99.90;;;;;;4986486;28;20153;-70
2023/04/23 07:02:37;;;;;;;;;;;10.10;99.90;;;;;;4979231;28;20038;-70
2023/04/23 07:05:03;;;;;;;45.35;21.77;;;10.10;99.90;;;;;;4984066;28;19924;-71
2023/04/23 07:07:29;;;;;;;50.60;23.23;;;10.10;99.90;;;;;;4982903;28;20403;-69
2023/04/23 07:09:55;;;;;;;46.53;23.27;;;10.30;99.90;;;;;;4996050;28;20038;-70
2023/04/23 07:12:21;;;;;;;45.28;22.17;;;10.30;99.90;;;;;;4975695;28;20046;-69
2023/04/23 07:14:47;;;;;;;48.53;23.58;;;10.50;99.90;;;;;;4976557;28;20050;-69
2023/04/23 07:17:13;;;;;;;47.53;21.83;;;10.50;99.90;;;;;;4994329;28;20060;-69
2023/04/23 07:19:39;;;;;;;48.38;22.02;;;10.60;99.90;;;;;;4985257;28;20539;-69
2023/04/23 07:22:04;;;;;;;44.93;22.13;;;10.70;99.90;;;;;;4990128;28;20118;-70
2023/04/23 07:24:30;;;;;;;48.53;21.40;;;10.80;99.90;;;;;;5003603;28;20053;-69
2023/04/23 07:26:56;;;;;;;43.47;21.23;;;10.80;99.90;;;;;;4997533;28;20084;-69
2023/04/23 07:29:21;;;;;;;50.50;22.40;;;10.80;99.90;;;;;;4974423;28;20105;-70
2023/04/23 07:31:47;;;;;;;40.70;20.83;;;10.90;99.90;;;;;;4972364;28;20113;-70
2023/04/23 07:34:13;;;;;;;44.03;21.02;;;10.90;99.90;;;;;;4967516;28;20054;-70
2023/04/23 07:36:39;;;;;;;44.28;20.88;;;11.00;99.90;;;;;;4990210;28;20049;-70
2023/04/23 07:39:05;;;;;;;42.97;21.73;;;11.10;99.90;;;;;;4977218;28;20495;-70
2023/04/23 07:41:31;;;;;;;37.35;18.90;;;11.10;99.90;;;;;;4983096;28;20041;-71
2023/04/23 07:43:57;;;;;;;40.00;19.92;;;11.20;99.90;;;;;;4980351;28;20042;-70
2023/04/23 07:46:23;;;;;;;38.20;19.77;;;11.30;99.90;;;;;;4976667;28;20073;-71
2023/04/23 07:48:48;;;;;;;42.08;20.83;;;11.30;99.90;;;;;;5001625;28;20065;-70
2023/04/23 07:51:15;;;;;;;33.92;18.25;;;11.40;99.90;;;;;;4977459;28;20487;-70
2023/04/23 07:53:40;;;;;;;38.65;18.75;;;11.50;99.90;;;;;;4976282;28;20046;-69
2023/04/23 07:56:06;;;;;;;36.85;18.38;;;11.50;99.90;;;;;;4982689;28;20076;-70
2023/04/23 07:58:32;;;;;;;37.53;18.45;;;11.60;99.90;;;;;;4967805;28;20073;-69
2023/04/23 08:00:58;;;;;;;36.40;18.92;;;11.60;99.90;;;;;;4962851;28;20046;-70
2023/04/23 08:03:24;;;;;;;39.60;19.53;;;11.70;99.90;;;;;;4994190;28;20034;-70
2023/04/23 08:05:49;;;;;;;37.28;18.80;;;11.70;99.90;;;;;;4972734;28;20315;-70
2023/04/23 08:08:15;;;;;;;37.38;17.85;;;11.80;99.90;;;;;;4997625;28;20081;-70
2023/04/23 08:10:41;;;;;;;36.10;18.02;;;11.80;99.90;;;;;;4981591;28;20101;-70
2023/04/23 08:13:07;;;;;;;35.60;17.93;;;11.90;99.90;;;;;;4999884;28;20068;-71
2023/04/23 08:15:33;;;;;;;33.67;17.20;;;12.00;99.90;;;;;;4961052;28;20361;-70
2023/04/23 08:18:01;;;;;;;38.83;18.10;;;12.10;99.90;;;;;;4989454;28;20041;-70
2023/04/23 08:20:27;;;;;;;34.25;17.83;;;12.10;99.90;;;;;;4984733;28;20287;-70
2023/04/23 08:22:53;;;;;;;29.30;15.83;;;12.20;99.90;;;;;;4998135;28;20037;-70
2023/04/23 08:25:19;;;;;;;29.70;16.92;;;12.30;99.90;;;;;;4986493;28;20391;-70
2023/04/23 08:27:45;;;;;;;29.20;14.65;;;12.30;99.90;;;;;;4972472;28;20050;-70
2023/04/23 08:30:14;;;;;;;31.23;14.90;;;12.40;99.90;;;;;;4980476;28;20128;-70
2023/04/23 08:32:40;;;;;;;30.35;15.27;;;12.40;99.90;;;;;;4972216;28;20393;-70
2023/04/23 08:35:07;;;;;;;30.40;15.93;;;12.50;99.90;;;;;;4963746;28;20057;-70
2023/04/23 08:37:33;;;;;;;28.35;15.82;;;12.60;99.90;;;;;;4971840;28;20038;-70
2023/04/23 08:40:00;;;;;;;32.17;15.90;;;12.60;99.90;;;;;;4998877;23;20355;-69
2023/04/23 08:42:56;;;;;;;30.05;15.82;;;12.70;99.90;;;;;;5016045;28;20040;-70
2023/04/23 08:45:22;;;;;;;29.98;15.85;;;12.80;99.90;;;;;;5023697;28;20053;-69
2023/04/23 08:47:49;;;;;;;27.13;12.82;;;12.90;99.90;;;;;;5024154;28;20048;-69
2023/04/23 08:50:16;;;;;;;26.95;14.85;;;13.00;99.90;;;;;;5033583;28;20053;-69
2023/04/23 08:53:03;;;;;;;27.73;14.52;;;13.10;99.90;;;;;;5030172;28;20375;-69
2023/04/23 08:55:29;;;;;;;21.67;12.32;;;13.20;99.90;;;;;;5035082;28;20044;-69
2023/04/23 08:57:56;;;;;;;26.38;13.23;;;13.20;99.90;;;;;;5028777;28;20044;-69
2023/04/23 09:00:24;;;;;;;20.83;11.43;;;13.20;99.90;;;;;;5033597;28;20173;-70
2023/04/23 09:02:50;;;;;;;20.17;11.15;;;13.30;99.90;;;;;;5033272;28;20383;-69
2023/04/23 09:05:16;;;;;;;19.27;11.07;;;13.40;99.90;;;;;;5037050;28;20167;-70
2023/04/23 09:07:42;;;;;;;22.67;11.25;;;13.40;99.90;;;;;;5038791;28;20397;-70
2023/04/23 09:10:13;;;;;;;18.60;10.18;;;13.50;99.90;;;;;;5028069;28;20045;-69
2023/04/23 09:12:41;;;;;;;20.30;9.35;;;13.60;99.90;;;;;;5035258;28;20110;-70
2023/04/23 09:15:09;;;;;;;17.33;9.48;;;13.70;99.90;;;;;;5032121;28;20367;-70
2023/04/23 09:17:39;;;;;;;17.98;9.52;;;13.80;99.90;;;;;;5038601;28;20157;-70
2023/04/23 09:20:07;;;;;;;16.27;8.98;;;13.90;99.90;;;;;;5054315;28;20041;-70
2023/04/23 09:22:47;;;;;;;16.85;8.90;;;14.00;99.90;;;;;;5017310;28;20033;-70
2023/04/23 09:25:18;;;;;;;14.25;7.55;;;14.10;99.90;;;;;;5024205;28;20100;-70
2023/04/23 09:27:45;;;;;;;15.23;8.48;;;14.10;99.90;;;;;;5036081;28;20054;-70
2023/04/23 09:30:11;;;;;;;13.32;7.63;;;14.10;99.90;;;;;;5039213;28;20037;-70
2023/04/23 09:32:42;;;;;;;14.25;8.57;;;14.10;99.90;;;;;;5034391;28;20470;-70
2023/04/23 09:35:12;;;;;;;14.52;7.88;;;14.20;99.90;;;;;;5019883;28;20515;-71
2023/04/23 09:37:47;;;;;;;12.07;6.32;;;14.40;99.90;;;;;;5033989;28;20053;-70
2023/04/23 09:40:15;;;;;;;10.52;6.43;;;14.50;99.90;;;;;;5037295;28;20041;-70
2023/04/23 09:42:53;;;;;;;14.00;6.90;;;14.60;99.90;;;;;;5035001;28;20041;-70
2023/04/23 09:45:19;;;;;;;15.63;6.25;;;14.80;99.90;;;;;;5035633;28;21467;-70
2023/04/23 09:47:52;;;;;;;;;;;14.90;99.90;;;;;;5035023;28;20406;-77
2023/04/23 09:50:30;;;;;;;9.48;5.70;;;14.90;99.90;;;;;;5035716;28;20286;-69
2023/04/23 09:52:55;;;;;;;11.70;5.18;;;15.00;99.90;;;;;;5027677;28;20193;-71
2023/04/23 09:55:37;;;;;;;12.55;5.30;;;15.00;99.90;;;;;;5027303;28;20174;-69
2023/04/23 09:58:04;;;;;;;9.95;5.30;;;15.20;99.90;;;;;;5031875;28;20140;-69
2023/04/23 10:00:35;;;;;;;9.90;5.03;;;15.40;99.90;;;;;;5029745;28;20049;-71
2023/04/23 10:03:01;;;;;;;9.23;4.55;;;15.70;99.90;;;;;;5034363;28;20310;-70
2023/04/23 10:05:28;;;;;;;15.93;5.47;;;15.80;99.90;;;;;;5026657;28;20375;-69
2023/04/23 10:08:03;;;;;;;12.48;5.47;;;15.90;99.90;;;;;;5030125;28;20060;-70
2023/04/23 10:10:29;;;;;;;11.05;4.68;;;16.00;99.90;;;;;;5035940;28;20123;-70
2023/04/23 10:12:55;;;;;;;8.32;4.38;;;16.10;99.90;;;;;;5035858;28;20049;-69
2023/04/23 10:15:25;;;;;;;8.30;4.10;;;16.10;99.90;;;;;;5010691;28;20053;-70
2023/04/23 10:17:52;;;;;;;7.82;4.03;;;16.20;99.90;;;;;;5027040;28;20041;-69
2023/04/23 10:20:22;;;;;;;9.05;4.18;;;16.40;99.90;;;;;;5025137;28;20501;-70
2023/04/23 10:22:49;;;;;;;9.48;3.70;;;16.70;99.90;;;;;;5027388;28;20072;-69
2023/04/23 10:25:16;;;;;;;9.65;3.33;;;16.80;99.90;;;;;;5020131;28;20094;-70
2023/04/23 10:27:45;;;;;;;9.48;4.03;;;16.90;99.90;;;;;;5032309;28;20060;-70
2023/04/23 10:30:12;;;;;;;9.50;3.88;;;16.80;99.90;;;;;;5022637;28;22516;-70
2023/04/23 10:32:38;;;;;;;9.70;3.40;;;16.90;99.90;;;;;;5025582;28;20060;-70
2023/04/23 10:35:14;;;;;;;8.15;3.78;;;16.80;99.90;;;;;;5012915;28;20072;-69
2023/04/23 10:37:43;;;;;;;5.93;2.72;;;16.70;99.90;;;;;;5026512;28;20073;-70
2023/04/23 10:40:12;;;;;;;7.85;3.35;;;16.50;99.90;;;;;;5032956;28;20045;-69
2023/04/23 10:42:43;;;;;;;7.72;3.30;;;16.30;99.90;;;;;;5030765;28;20049;-69
2023/04/23 10:45:15;;;;;;;8.82;2.97;;;16.20;99.90;;;;;;5031668;28;20072;-70
2023/04/23 10:47:44;;;;;;;10.07;3.85;;;16.10;99.90;;;;;;5021753;28;20056;-69
2023/04/23 10:50:36;;;;;;;9.25;4.07;;;16.10;99.90;;;;;;5029754;28;20080;-70
2023/04/23 10:53:22;;;;;;;8.95;4.10;;;16.20;99.90;;;;;;5029619;28;20061;-70
2023/04/23 10:55:48;;;;;;;8.07;4.30;;;16.20;99.90;;;;;;5027913;28;20482;-69
2023/04/23 10:58:14;;;;;;;4.95;3.05;;;16.20;99.90;;;;;;5021876;28;20479;-69
2023/04/23 11:00:40;;;;;;;5.20;2.60;;;16.20;99.90;;;;;;5022069;28;20072;-70
2023/04/23 11:03:35;;;;;;;7.45;2.83;;;16.30;99.90;;;;;;5028599;28;20431;-70
2023/04/23 11:06:02;;;;;;;6.57;3.00;;;16.50;99.90;;;;;;5020288;28;20134;-70
2023/04/23 11:08:33;;;;;;;7.13;2.88;;;16.70;99.90;;;;;;5023785;28;20623;-69
2023/04/23 11:11:00;;;;;;;6.45;2.58;;;16.70;99.90;;;;;;5031900;28;20036;-69
2023/04/23 11:13:27;;;;;;;7.57;2.00;;;16.80;99.90;;;;;;5023522;28;20041;-70
2023/04/23 11:16:20;;;;;;;6.82;2.20;;;16.80;99.90;;;;;;5017105;28;20110;-69
2023/04/23 11:19:11;;;;;;;7.45;2.53;;;16.80;99.90;;;;;;5030553;28;20308;-69
2023/04/23 11:21:59;;;;;;;6.53;2.20;;;16.70;99.90;;;;;;5028009;28;20109;-69
2023/04/23 11:24:41;;;;;;;6.63;1.95;;;16.50;99.90;;;;;;5032894;28;20088;-69
2023/04/23 11:27:12;;;;;;;7.85;1.80;;;16.50;99.90;;;;;;5016042;28;20052;-70
2023/04/23 11:29:39;;;;;;;7.50;2.30;;;16.50;99.90;;;;;;5030861;28;20513;-70
2023/04/23 11:32:12;;;;;;;5.32;1.70;;;16.60;99.90;;;;;;5028247;28;20060;-70
2023/04/23 11:34:42;;;;;;;8.73;2.33;;;16.60;99.90;;;;;;5032427;28;20131;-70
2023/04/23 11:37:13;;;;;;;7.53;1.42;;;16.60;99.90;;;;;;5031397;28;20052;-69
2023/04/23 11:39:40;;;;;;;7.60;1.90;;;16.70;99.90;;;;;;5028134;28;20045;-70
2023/04/23 11:42:13;;;;;;;5.60;1.67;;;16.80;99.90;;;;;;5033576;28;20686;-69
2023/04/23 11:44:40;;;;;;;6.65;2.22;;;17.00;99.90;;;;;;5038521;28;20135;-69
2023/04/23 11:47:11;;;;;;;4.88;1.52;;;17.10;99.90;;;;;;5039959;28;20032;-69
2023/04/23 11:49:38;;;;;;;2.80;1.02;;;17.20;99.90;;;;;;5026748;28;20060;-69
2023/04/23 11:52:04;;;;;;;5.50;1.30;;;17.20;99.90;;;;;;5026729;28;20395;-70
2023/04/23 11:54:30;;;;;;;;;;;17.30;99.90;;;;;;5044152;28;20144;-70
2023/04/23 11:56:57;;;;;;;8.00;2.17;;;17.50;99.90;;;;;;5047572;28;20007;-69
2023/04/23 11:59:23;;;;;;;5.45;1.65;;;17.70;99.90;;;;;;5031266;28;20983;-69
2023/04/23 12:01:57;;;;;;;4.70;1.08;;;17.90;99.90;;;;;;5044598;28;20048;-70
2023/04/23 12:04:24;;;;;;;5.50;1.30;;;18.00;99.90;;;;;;5047094;28;20760;-70
2023/04/23 12:06:52;;;;;;;3.78;1.13;;;18.20;99.90;;;;;;5030485;28;20132;-70
2023/04/23 12:09:23;;;;;;;5.95;1.42;;;18.30;99.90;;;;;;5048609;28;20080;-70
2023/04/23 12:11:50;;;;;;;3.28;1.05;;;18.40;99.90;;;;;;5053301;28;20521;-69
2023/04/23 12:14:19;;;;;;;4.82;1.70;;;18.50;99.90;;;;;;5050487;28;20391;-70
2023/04/23 12:16:46;;;;;;;5.35;1.10;;;18.50;99.90;;;;;;5030275;28;20048;-70
2023/04/23 12:19:17;;;;;;;4.82;1.30;;;18.50;99.90;;;;;;5024516;28;20041;-70
2023/04/23 12:22:01;;;;;;;4.22;1.23;;;18.60;99.90;;;;;;5049199;28;20047;-70
2023/04/23 12:24:29;;;;;;;4.70;1.10;;;18.60;99.90;;;;;;5035773;28;20049;-70
2023/04/23 12:27:01;;;;;;;7.00;1.67;;;18.50;99.90;;;;;;5056761;28;20491;-70
2023/04/23 12:29:29;;;;;;;3.28;1.02;;;18.50;99.90;;;;;;5045745;28;20036;-70
2023/04/23 12:31:58;;;;;;;3.97;1.00;;;18.50;99.90;;;;;;5019670;28;20365;-70
2023/04/23 12:34:24;;;;;;;4.53;0.90;;;18.60;99.90;;;;;;5029600;28;20155;-69
2023/04/23 12:36:50;;;;;;;;;;;18.70;99.90;;;;;;5038160;28;20297;-69
2023/04/23 12:39:33;;;;;;;4.13;1.50;;;18.70;99.90;;;;;;5047347;28;20158;-70
2023/04/23 12:42:03;;;;;;;7.55;1.20;;;18.80;99.90;;;;;;5045937;28;20382;-69
2023/04/23 12:44:34;;;;;;;4.93;1.05;;;18.90;99.90;;;;;;5044677;28;20091;-69